Meath Environmental Platform

Observations for Trim Patrick St

Time AQI Temp °C Hum % Pres Pa CO μg/m³ H₂S μg/m³ NO μg/m³ NO₂ μg/m³ O₃ μg/m³ SO₂ μg/m³ PM1 μg/m³ PM2.5 μg/m³ PM10 μg/m³
Wednesday 5 August 2026
10:30 2 19.9 57 74,106 0 0 3.31 3.37 60.59 1.28 2 7.45 8.19
10:29 2 19.8 58 74,127 0 0 3.36 4.29 60.72 0.87 2.86 7.4 8.14
10:28 2 19.8 57 74,139 0 0 3.35 3.29 59.92 0.83 2 5.95 6.54
10:27 2 19.8 56 74,145 0 0 3.26 3.92 59.96 0.85 2 6 6.6
10:26 2 19.8 56 74,151 0 0 3.11 4 60.79 1.22 2 6.03 6.64
10:25 2 19.8 56 74,155 0 0 3.18 3.62 59.51 0.64 2 6.02 6.62
10:24 2 19.8 56 74,161 0 0 3.3 4.39 61 0.69 2 6.03 6.64
10:23 2 19.9 56 74,178 0 0 3.23 3.02 55.82 0.55 2 6.03 6.64
10:22 2 19.9 56 74,206 0 0 3.09 2.58 49.95 1.03 2 6.04 6.65
10:21 2 19.9 57 74,237 0 0 3.2 3.45 58.2 1.25 2 5.97 6.57
10:20 2 19.9 57 74,271 0 0 3.3 4.13 53.81 0.69 2 5.95 6.54
10:19 2 19.9 58 74,288 0 0 3.27 4.79 59.19 0.71 2 5.92 6.51
10:18 2 19.8 58 74,316 0 0 3.36 4.62 58.99 0.84 2 6.67 7.34
10:17 2 19.8 58 74,336 0 0 3.26 3.82 54.59 0.8 2 5.93 6.52
10:16 2 19.7 58 74,361 0 0 3.33 6.45 53.21 1.7 2 6.64 7.3
10:15 2 19.7 58 74,371 0 0 3.19 4.87 56.91 1.16 2 5.93 6.53
10:14 2 19.7 58 74,373 0 0 3.17 4.62 60.5 1.24 2 5.93 6.52
10:13 2 19.7 57 74,385 0.01 0 3.02 3.98 57.43 0.51 2 5.97 6.56
10:12 2 19.7 58 74,394 0.02 0 3.21 3.74 57.06 0.67 2 5.93 6.53
10:11 2 19.8 57 74,426 0.04 0 3.32 2.78 53.51 0.63 2 5.95 6.55